sensor_id;sensor_type;location;lat;lon;timestamp;temperature;humidity
37460;DHT22;23318;50.966;5.284;2023-04-15T00:01:06;8.90;99.90
37460;DHT22;23318;50.966;5.284;2023-04-15T00:03:32;8.90;99.90
37460;DHT22;23318;50.966;5.284;2023-04-15T00:05:59;8.90;99.90
37460;DHT22;23318;50.966;5.284;2023-04-15T00:08:24;9.00;99.90
37460;DHT22;23318;50.966;5.284;2023-04-15T00:10:50;9.00;99.90
37460;DHT22;23318;50.966;5.284;2023-04-15T00:13:16;9.10;99.90
37460;DHT22;23318;50.966;5.284;2023-04-15T00:15:42;9.20;99.90
37460;DHT22;23318;50.966;5.284;2023-04-15T00:18:07;9.20;99.90
37460;DHT22;23318;50.966;5.284;2023-04-15T00:20:34;9.30;99.90
37460;DHT22;23318;50.966;5.284;2023-04-15T00:23:01;9.30;99.90
37460;DHT22;23318;50.966;5.284;2023-04-15T00:25:27;9.40;99.90
37460;DHT22;23318;50.966;5.284;2023-04-15T00:27:53;9.50;99.90
37460;DHT22;23318;50.966;5.284;2023-04-15T00:30:19;9.50;99.90
37460;DHT22;23318;50.966;5.284;2023-04-15T00:32:44;9.50;99.90
37460;DHT22;23318;50.966;5.284;2023-04-15T00:35:11;9.50;99.90
37460;DHT22;23318;50.966;5.284;2023-04-15T00:37:37;9.50;99.90
37460;DHT22;23318;50.966;5.284;2023-04-15T00:40:03;9.60;99.90
37460;DHT22;23318;50.966;5.284;2023-04-15T00:42:30;9.60;99.90
37460;DHT22;23318;50.966;5.284;2023-04-15T00:44:56;9.60;99.90
37460;DHT22;23318;50.966;5.284;2023-04-15T00:47:22;9.60;99.90
37460;DHT22;23318;50.966;5.284;2023-04-15T00:49:48;9.70;99.90
37460;DHT22;23318;50.966;5.284;2023-04-15T00:52:13;9.70;99.90
37460;DHT22;23318;50.966;5.284;2023-04-15T00:54:39;9.80;99.90
37460;DHT22;23318;50.966;5.284;2023-04-15T00:57:06;9.70;99.90
37460;DHT22;23318;50.966;5.284;2023-04-15T00:59:33;9.80;99.90
37460;DHT22;23318;50.966;5.284;2023-04-15T01:01:59;9.70;99.90
37460;DHT22;23318;50.966;5.284;2023-04-15T01:04:25;9.70;99.90
37460;DHT22;23318;50.966;5.284;2023-04-15T01:06:51;9.80;99.90
37460;DHT22;23318;50.966;5.284;2023-04-15T01:09:17;9.80;99.90
37460;DHT22;23318;50.966;5.284;2023-04-15T01:11:43;9.90;99.90
37460;DHT22;23318;50.966;5.284;2023-04-15T01:14:09;10.00;99.90
37460;DHT22;23318;50.966;5.284;2023-04-15T01:16:36;9.90;99.90
37460;DHT22;23318;50.966;5.284;2023-04-15T01:19:06;9.70;99.90
37460;DHT22;23318;50.966;5.284;2023-04-15T01:21:38;9.70;99.90
37460;DHT22;23318;50.966;5.284;2023-04-15T01:24:08;9.70;99.90
37460;DHT22;23318;50.966;5.284;2023-04-15T01:26:38;10.10;99.90
37460;DHT22;23318;50.966;5.284;2023-04-15T01:29:04;10.40;99.90
37460;DHT22;23318;50.966;5.284;2023-04-15T01:31:31;10.50;99.90
37460;DHT22;23318;50.966;5.284;2023-04-15T01:33:58;10.60;99.90
37460;DHT22;23318;50.966;5.284;2023-04-15T01:36:23;10.50;99.90
37460;DHT22;23318;50.966;5.284;2023-04-15T01:38:50;10.40;99.90
37460;DHT22;23318;50.966;5.284;2023-04-15T01:41:16;10.40;99.90
37460;DHT22;23318;50.966;5.284;2023-04-15T01:43:46;10.40;99.90
37460;DHT22;23318;50.966;5.284;2023-04-15T01:46:11;10.30;99.90
37460;DHT22;23318;50.966;5.284;2023-04-15T01:48:37;10.30;99.90
37460;DHT22;23318;50.966;5.284;2023-04-15T01:51:02;10.30;99.90
37460;DHT22;23318;50.966;5.284;2023-04-15T01:53:28;10.30;99.90
37460;DHT22;23318;50.966;5.284;2023-04-15T01:55:54;10.10;99.90
37460;DHT22;23318;50.966;5.284;2023-04-15T01:58:20;10.20;99.90
37460;DHT22;23318;50.966;5.284;2023-04-15T02:00:46;10.30;99.90
37460;DHT22;23318;50.966;5.284;2023-04-15T02:03:12;9.80;99.90
37460;DHT22;23318;50.966;5.284;2023-04-15T02:05:38;9.10;99.90
37460;DHT22;23318;50.966;5.284;2023-04-15T02:08:03;8.60;99.90
37460;DHT22;23318;50.966;5.284;2023-04-15T02:10:29;8.60;99.90
37460;DHT22;23318;50.966;5.284;2023-04-15T02:12:55;9.20;99.90
37460;DHT22;23318;50.966;5.284;2023-04-15T02:15:21;9.80;99.90
37460;DHT22;23318;50.966;5.284;2023-04-15T02:17:47;9.70;99.90
37460;DHT22;23318;50.966;5.284;2023-04-15T02:20:16;10.00;99.90
37460;DHT22;23318;50.966;5.284;2023-04-15T02:22:42;10.40;99.90
37460;DHT22;23318;50.966;5.284;2023-04-15T02:25:08;10.60;99.90
37460;DHT22;23318;50.966;5.284;2023-04-15T02:27:37;10.70;99.90
37460;DHT22;23318;50.966;5.284;2023-04-15T02:30:03;10.80;99.90
37460;DHT22;23318;50.966;5.284;2023-04-15T02:32:28;10.80;99.90
37460;DHT22;23318;50.966;5.284;2023-04-15T02:34:54;10.60;99.90
37460;DHT22;23318;50.966;5.284;2023-04-15T02:37:20;10.70;99.90
37460;DHT22;23318;50.966;5.284;2023-04-15T02:39:46;10.60;99.90
37460;DHT22;23318;50.966;5.284;2023-04-15T02:42:12;10.60;99.90
37460;DHT22;23318;50.966;5.284;2023-04-15T02:44:37;10.60;99.90
37460;DHT22;23318;50.966;5.284;2023-04-15T02:47:03;10.20;99.90
37460;DHT22;23318;50.966;5.284;2023-04-15T02:49:31;10.40;99.90
37460;DHT22;23318;50.966;5.284;2023-04-15T02:51:57;9.70;99.90
37460;DHT22;23318;50.966;5.284;2023-04-15T02:54:25;10.00;99.90
37460;DHT22;23318;50.966;5.284;2023-04-15T02:56:53;10.20;99.90
37460;DHT22;23318;50.966;5.284;2023-04-15T02:59:20;9.80;99.90
37460;DHT22;23318;50.966;5.284;2023-04-15T03:01:46;9.60;99.90
37460;DHT22;23318;50.966;5.284;2023-04-15T03:04:12;9.90;99.90
37460;DHT22;23318;50.966;5.284;2023-04-15T03:06:38;10.20;99.90
37460;DHT22;23318;50.966;5.284;2023-04-15T03:09:04;10.40;99.90
37460;DHT22;23318;50.966;5.284;2023-04-15T03:11:30;10.50;99.90
37460;DHT22;23318;50.966;5.284;2023-04-15T03:13:56;10.00;99.90
37460;DHT22;23318;50.966;5.284;2023-04-15T03:16:23;10.20;99.90
37460;DHT22;23318;50.966;5.284;2023-04-15T03:18:49;10.50;99.90
37460;DHT22;23318;50.966;5.284;2023-04-15T03:21:15;10.40;99.90
37460;DHT22;23318;50.966;5.284;2023-04-15T03:23:40;10.30;99.90
37460;DHT22;23318;50.966;5.284;2023-04-15T03:26:06;10.50;99.90
37460;DHT22;23318;50.966;5.284;2023-04-15T03:28:32;10.60;99.90
37460;DHT22;23318;50.966;5.284;2023-04-15T03:30:58;10.60;99.90
37460;DHT22;23318;50.966;5.284;2023-04-15T03:33:24;10.60;99.90
37460;DHT22;23318;50.966;5.284;2023-04-15T03:35:50;10.70;99.90
37460;DHT22;23318;50.966;5.284;2023-04-15T03:38:17;10.60;99.90
37460;DHT22;23318;50.966;5.284;2023-04-15T03:40:42;10.60;99.90
37460;DHT22;23318;50.966;5.284;2023-04-15T03:43:08;10.40;99.90
37460;DHT22;23318;50.966;5.284;2023-04-15T03:45:34;10.30;99.90
37460;DHT22;23318;50.966;5.284;2023-04-15T03:48:00;10.40;99.90
37460;DHT22;23318;50.966;5.284;2023-04-15T03:50:26;10.30;99.90
37460;DHT22;23318;50.966;5.284;2023-04-15T03:52:52;10.20;99.90
37460;DHT22;23318;50.966;5.284;2023-04-15T03:55:18;10.10;99.90
37460;DHT22;23318;50.966;5.284;2023-04-15T03:57:44;10.00;99.90
37460;DHT22;23318;50.966;5.284;2023-04-15T04:00:10;10.00;99.90
37460;DHT22;23318;50.966;5.284;2023-04-15T04:02:36;9.90;99.90
37460;DHT22;23318;50.966;5.284;2023-04-15T04:05:02;9.80;99.90
37460;DHT22;23318;50.966;5.284;2023-04-15T04:07:28;9.70;99.90
37460;DHT22;23318;50.966;5.284;2023-04-15T04:09:56;9.60;99.90
37460;DHT22;23318;50.966;5.284;2023-04-15T04:12:22;9.60;99.90
37460;DHT22;23318;50.966;5.284;2023-04-15T04:14:48;9.40;99.90
37460;DHT22;23318;50.966;5.284;2023-04-15T04:17:13;9.30;99.90
37460;DHT22;23318;50.966;5.284;2023-04-15T04:19:39;9.30;99.90
37460;DHT22;23318;50.966;5.284;2023-04-15T04:22:05;9.30;99.90
37460;DHT22;23318;50.966;5.284;2023-04-15T04:24:31;9.40;99.90
37460;DHT22;23318;50.966;5.284;2023-04-15T04:26:56;9.40;99.90
37460;DHT22;23318;50.966;5.284;2023-04-15T04:29:22;9.50;99.90
37460;DHT22;23318;50.966;5.284;2023-04-15T04:31:48;9.50;99.90
37460;DHT22;23318;50.966;5.284;2023-04-15T04:34:14;9.50;99.90
37460;DHT22;23318;50.966;5.284;2023-04-15T04:36:40;9.30;99.90
37460;DHT22;23318;50.966;5.284;2023-04-15T04:39:06;9.30;99.90
37460;DHT22;23318;50.966;5.284;2023-04-15T04:41:32;9.30;99.90
37460;DHT22;23318;50.966;5.284;2023-04-15T04:43:58;9.20;99.90
37460;DHT22;23318;50.966;5.284;2023-04-15T04:46:24;9.20;99.90
37460;DHT22;23318;50.966;5.284;2023-04-15T04:48:49;9.00;99.90
37460;DHT22;23318;50.966;5.284;2023-04-15T04:51:15;9.10;99.90
37460;DHT22;23318;50.966;5.284;2023-04-15T04:53:41;9.10;99.90
37460;DHT22;23318;50.966;5.284;2023-04-15T04:56:07;9.10;99.90
37460;DHT22;23318;50.966;5.284;2023-04-15T04:58:33;9.20;99.90
37460;DHT22;23318;50.966;5.284;2023-04-15T05:01:00;9.20;99.90
37460;DHT22;23318;50.966;5.284;2023-04-15T05:03:26;9.20;99.90
37460;DHT22;23318;50.966;5.284;2023-04-15T05:05:51;9.20;99.90
37460;DHT22;23318;50.966;5.284;2023-04-15T05:08:17;9.30;99.90
37460;DHT22;23318;50.966;5.284;2023-04-15T05:10:43;9.40;99.90
37460;DHT22;23318;50.966;5.284;2023-04-15T05:13:08;9.40;99.90
37460;DHT22;23318;50.966;5.284;2023-04-15T05:15:34;9.50;99.90
37460;DHT22;23318;50.966;5.284;2023-04-15T05:18:01;9.60;99.90
37460;DHT22;23318;50.966;5.284;2023-04-15T05:20:27;9.60;99.90
37460;DHT22;23318;50.966;5.284;2023-04-15T05:22:53;9.70;99.90
37460;DHT22;23318;50.966;5.284;2023-04-15T05:25:18;9.70;99.90
37460;DHT22;23318;50.966;5.284;2023-04-15T05:27:44;9.70;99.90
37460;DHT22;23318;50.966;5.284;2023-04-15T05:30:10;9.80;99.90
37460;DHT22;23318;50.966;5.284;2023-04-15T05:32:36;9.70;99.90
37460;DHT22;23318;50.966;5.284;2023-04-15T05:35:02;9.70;99.90
37460;DHT22;23318;50.966;5.284;2023-04-15T05:37:28;9.60;99.90
37460;DHT22;23318;50.966;5.284;2023-04-15T05:39:53;9.60;99.90
37460;DHT22;23318;50.966;5.284;2023-04-15T05:42:19;9.70;99.90
37460;DHT22;23318;50.966;5.284;2023-04-15T05:44:45;9.70;99.90
37460;DHT22;23318;50.966;5.284;2023-04-15T05:47:11;9.80;99.90
37460;DHT22;23318;50.966;5.284;2023-04-15T05:49:36;9.90;99.90
37460;DHT22;23318;50.966;5.284;2023-04-15T05:52:02;9.80;99.90
37460;DHT22;23318;50.966;5.284;2023-04-15T05:54:28;9.80;99.90
37460;DHT22;23318;50.966;5.284;2023-04-15T05:56:54;9.70;99.90
37460;DHT22;23318;50.966;5.284;2023-04-15T05:59:20;9.90;99.90
37460;DHT22;23318;50.966;5.284;2023-04-15T06:01:46;10.00;99.90
37460;DHT22;23318;50.966;5.284;2023-04-15T06:04:12;10.00;99.90
37460;DHT22;23318;50.966;5.284;2023-04-15T06:06:38;10.10;99.90
37460;DHT22;23318;50.966;5.284;2023-04-15T06:09:04;10.10;99.90
37460;DHT22;23318;50.966;5.284;2023-04-15T06:11:30;10.30;99.90
37460;DHT22;23318;50.966;5.284;2023-04-15T06:13:56;10.30;99.90
37460;DHT22;23318;50.966;5.284;2023-04-15T06:16:22;10.40;99.90
37460;DHT22;23318;50.966;5.284;2023-04-15T06:18:48;10.30;99.90
37460;DHT22;23318;50.966;5.284;2023-04-15T06:21:14;10.30;99.90
37460;DHT22;23318;50.966;5.284;2023-04-15T06:23:40;10.30;99.90
37460;DHT22;23318;50.966;5.284;2023-04-15T06:26:06;10.20;99.90
37460;DHT22;23318;50.966;5.284;2023-04-15T06:28:32;10.30;99.90
37460;DHT22;23318;50.966;5.284;2023-04-15T06:30:58;10.40;99.90
37460;DHT22;23318;50.966;5.284;2023-04-15T06:33:23;10.50;99.90
37460;DHT22;23318;50.966;5.284;2023-04-15T06:35:49;10.50;99.90
37460;DHT22;23318;50.966;5.284;2023-04-15T06:38:15;10.50;99.90
37460;DHT22;23318;50.966;5.284;2023-04-15T06:40:41;10.40;99.90
37460;DHT22;23318;50.966;5.284;2023-04-15T06:43:07;10.30;99.90
37460;DHT22;23318;50.966;5.284;2023-04-15T06:45:33;10.50;99.90
37460;DHT22;23318;50.966;5.284;2023-04-15T06:47:59;10.70;99.90
37460;DHT22;23318;50.966;5.284;2023-04-15T06:50:25;10.80;99.90
37460;DHT22;23318;50.966;5.284;2023-04-15T06:52:50;11.00;99.90
37460;DHT22;23318;50.966;5.284;2023-04-15T06:55:16;11.20;99.90
37460;DHT22;23318;50.966;5.284;2023-04-15T06:57:42;11.50;99.90
37460;DHT22;23318;50.966;5.284;2023-04-15T07:00:08;11.60;99.90
37460;DHT22;23318;50.966;5.284;2023-04-15T07:02:35;11.60;99.90
37460;DHT22;23318;50.966;5.284;2023-04-15T07:05:01;11.70;99.70
37460;DHT22;23318;50.966;5.284;2023-04-15T07:07:27;12.00;99.90
37460;DHT22;23318;50.966;5.284;2023-04-15T07:09:53;12.30;99.50
37460;DHT22;23318;50.966;5.284;2023-04-15T07:12:19;11.90;99.20
37460;DHT22;23318;50.966;5.284;2023-04-15T07:14:44;11.90;99.70
37460;DHT22;23318;50.966;5.284;2023-04-15T07:17:10;11.80;99.60
37460;DHT22;23318;50.966;5.284;2023-04-15T07:19:36;11.70;99.70
37460;DHT22;23318;50.966;5.284;2023-04-15T07:22:02;11.60;99.90
37460;DHT22;23318;50.966;5.284;2023-04-15T07:24:28;11.40;99.90
37460;DHT22;23318;50.966;5.284;2023-04-15T07:26:54;11.40;99.90
37460;DHT22;23318;50.966;5.284;2023-04-15T07:29:22;11.30;99.70
37460;DHT22;23318;50.966;5.284;2023-04-15T07:31:48;11.50;99.90
37460;DHT22;23318;50.966;5.284;2023-04-15T07:34:13;11.70;99.80
37460;DHT22;23318;50.966;5.284;2023-04-15T07:36:39;11.90;99.60
37460;DHT22;23318;50.966;5.284;2023-04-15T07:39:05;12.10;99.20
37460;DHT22;23318;50.966;5.284;2023-04-15T07:41:30;12.10;99.10
37460;DHT22;23318;50.966;5.284;2023-04-15T07:43:56;12.20;99.10
37460;DHT22;23318;50.966;5.284;2023-04-15T07:46:22;12.30;99.00
37460;DHT22;23318;50.966;5.284;2023-04-15T07:48:49;12.50;99.00
37460;DHT22;23318;50.966;5.284;2023-04-15T07:51:15;12.50;98.80
37460;DHT22;23318;50.966;5.284;2023-04-15T07:53:42;12.40;98.70
37460;DHT22;23318;50.966;5.284;2023-04-15T07:56:09;12.30;99.00
37460;DHT22;23318;50.966;5.284;2023-04-15T07:58:34;12.50;99.20
37460;DHT22;23318;50.966;5.284;2023-04-15T08:01:00;12.70;99.20
37460;DHT22;23318;50.966;5.284;2023-04-15T08:03:26;12.80;99.30
37460;DHT22;23318;50.966;5.284;2023-04-15T08:05:52;12.80;99.10
37460;DHT22;23318;50.966;5.284;2023-04-15T08:08:18;12.80;99.30
37460;DHT22;23318;50.966;5.284;2023-04-15T08:10:44;12.90;99.30
37460;DHT22;23318;50.966;5.284;2023-04-15T08:13:10;13.00;99.60
37460;DHT22;23318;50.966;5.284;2023-04-15T08:15:36;13.20;99.20
37460;DHT22;23318;50.966;5.284;2023-04-15T08:18:02;13.00;99.30
37460;DHT22;23318;50.966;5.284;2023-04-15T08:20:28;12.80;99.70
37460;DHT22;23318;50.966;5.284;2023-04-15T08:22:54;12.60;99.90
37460;DHT22;23318;50.966;5.284;2023-04-15T08:25:20;12.70;99.90
37460;DHT22;23318;50.966;5.284;2023-04-15T08:27:46;12.70;99.90
37460;DHT22;23318;50.966;5.284;2023-04-15T08:30:12;12.80;99.90
37460;DHT22;23318;50.966;5.284;2023-04-15T08:32:38;12.90;99.90
37460;DHT22;23318;50.966;5.284;2023-04-15T08:35:04;12.70;99.90
37460;DHT22;23318;50.966;5.284;2023-04-15T08:37:30;12.90;99.90
37460;DHT22;23318;50.966;5.284;2023-04-15T08:39:56;13.10;99.90
37460;DHT22;23318;50.966;5.284;2023-04-15T08:42:30;13.00;99.90
37460;DHT22;23318;50.966;5.284;2023-04-15T08:44:58;13.00;99.90
37460;DHT22;23318;50.966;5.284;2023-04-15T08:47:26;13.10;99.90
37460;DHT22;23318;50.966;5.284;2023-04-15T08:49:54;13.20;99.90
37460;DHT22;23318;50.966;5.284;2023-04-15T08:52:24;13.10;99.90
37460;DHT22;23318;50.966;5.284;2023-04-15T08:54:54;13.10;99.90
37460;DHT22;23318;50.966;5.284;2023-04-15T08:57:25;13.20;99.90
37460;DHT22;23318;50.966;5.284;2023-04-15T08:59:52;13.40;99.90
37460;DHT22;23318;50.966;5.284;2023-04-15T09:02:18;13.40;99.80
37460;DHT22;23318;50.966;5.284;2023-04-15T09:04:43;13.60;99.90
37460;DHT22;23318;50.966;5.284;2023-04-15T09:07:09;13.70;99.60
37460;DHT22;23318;50.966;5.284;2023-04-15T09:09:35;13.70;99.70
37460;DHT22;23318;50.966;5.284;2023-04-15T09:12:01;13.70;99.40
37460;DHT22;23318;50.966;5.284;2023-04-15T09:14:28;13.90;99.40
37460;DHT22;23318;50.966;5.284;2023-04-15T09:17:01;13.80;98.80
37460;DHT22;23318;50.966;5.284;2023-04-15T09:19:28;13.90;98.90
37460;DHT22;23318;50.966;5.284;2023-04-15T09:21:56;14.00;98.70
37460;DHT22;23318;50.966;5.284;2023-04-15T09:24:22;14.00;98.40
37460;DHT22;23318;50.966;5.284;2023-04-15T09:26:52;14.00;98.50
37460;DHT22;23318;50.966;5.284;2023-04-15T09:29:19;14.00;98.80
37460;DHT22;23318;50.966;5.284;2023-04-15T09:31:45;14.30;98.60
37460;DHT22;23318;50.966;5.284;2023-04-15T09:34:10;14.10;98.50
37460;DHT22;23318;50.966;5.284;2023-04-15T09:36:56;14.00;98.70
37460;DHT22;23318;50.966;5.284;2023-04-15T09:39:22;14.20;98.40
37460;DHT22;23318;50.966;5.284;2023-04-15T09:42:04;14.30;97.30
37460;DHT22;23318;50.966;5.284;2023-04-15T09:44:30;14.10;97.50
37460;DHT22;23318;50.966;5.284;2023-04-15T09:46:55;14.10;97.40
37460;DHT22;23318;50.966;5.284;2023-04-15T09:49:21;14.20;97.80
37460;DHT22;23318;50.966;5.284;2023-04-15T09:51:47;14.30;97.60
37460;DHT22;23318;50.966;5.284;2023-04-15T09:54:18;14.40;97.70
37460;DHT22;23318;50.966;5.284;2023-04-15T09:56:46;14.50;97.40
37460;DHT22;23318;50.966;5.284;2023-04-15T09:59:11;14.80;97.60
37460;DHT22;23318;50.966;5.284;2023-04-15T10:01:37;14.70;96.40
37460;DHT22;23318;50.966;5.284;2023-04-15T10:04:04;14.80;96.30
37460;DHT22;23318;50.966;5.284;2023-04-15T10:06:31;14.90;96.80
37460;DHT22;23318;50.966;5.284;2023-04-15T10:08:58;15.10;96.60
37460;DHT22;23318;50.966;5.284;2023-04-15T10:11:24;15.10;95.60
37460;DHT22;23318;50.966;5.284;2023-04-15T10:13:53;15.20;95.10
37460;DHT22;23318;50.966;5.284;2023-04-15T10:16:20;15.20;95.00
37460;DHT22;23318;50.966;5.284;2023-04-15T10:18:52;15.10;95.40
37460;DHT22;23318;50.966;5.284;2023-04-15T10:21:20;15.20;95.40
37460;DHT22;23318;50.966;5.284;2023-04-15T10:23:47;15.30;95.40
37460;DHT22;23318;50.966;5.284;2023-04-15T10:26:13;15.50;95.60
37460;DHT22;23318;50.966;5.284;2023-04-15T10:28:44;15.50;93.90
37460;DHT22;23318;50.966;5.284;2023-04-15T10:31:12;15.40;93.30
37460;DHT22;23318;50.966;5.284;2023-04-15T10:33:41;15.30;90.00
37460;DHT22;23318;50.966;5.284;2023-04-15T10:36:09;15.20;91.40
37460;DHT22;23318;50.966;5.284;2023-04-15T10:38:43;15.30;91.90
37460;DHT22;23318;50.966;5.284;2023-04-15T10:43:39;16.20;91.40
37460;DHT22;23318;50.966;5.284;2023-04-15T10:46:09;16.50;91.30
37460;DHT22;23318;50.966;5.284;2023-04-15T10:48:35;16.50;91.00
37460;DHT22;23318;50.966;5.284;2023-04-15T10:51:01;16.80;91.70
37460;DHT22;23318;50.966;5.284;2023-04-15T10:53:30;17.50;91.70
37460;DHT22;23318;50.966;5.284;2023-04-15T10:55:57;17.40;91.50
37460;DHT22;23318;50.966;5.284;2023-04-15T10:58:24;17.50;90.30
37460;DHT22;23318;50.966;5.284;2023-04-15T11:00:51;17.30;90.80
37460;DHT22;23318;50.966;5.284;2023-04-15T11:03:36;18.00;91.30
37460;DHT22;23318;50.966;5.284;2023-04-15T11:06:06;18.10;91.00
37460;DHT22;23318;50.966;5.284;2023-04-15T11:11:17;17.20;91.00
37460;DHT22;23318;50.966;5.284;2023-04-15T11:13:48;17.80;90.60
37460;DHT22;23318;50.966;5.284;2023-04-15T11:16:14;18.00;90.80
37460;DHT22;23318;50.966;5.284;2023-04-15T11:18:40;18.60;90.60
37460;DHT22;23318;50.966;5.284;2023-04-15T11:21:07;18.70;90.40
37460;DHT22;23318;50.966;5.284;2023-04-15T11:23:33;18.70;89.90
37460;DHT22;23318;50.966;5.284;2023-04-15T11:26:00;18.70;89.40
37460;DHT22;23318;50.966;5.284;2023-04-15T11:28:28;20.40;88.70
37460;DHT22;23318;50.966;5.284;2023-04-15T11:30:54;20.80;88.50
37460;DHT22;23318;50.966;5.284;2023-04-15T11:33:20;22.00;87.00
37460;DHT22;23318;50.966;5.284;2023-04-15T11:35:47;21.80;83.30
37460;DHT22;23318;50.966;5.284;2023-04-15T11:38:13;21.10;83.50
37460;DHT22;23318;50.966;5.284;2023-04-15T11:40:40;20.90;82.90
37460;DHT22;23318;50.966;5.284;2023-04-15T11:45:37;20.90;82.30
37460;DHT22;23318;50.966;5.284;2023-04-15T11:50:32;20.90;81.30
37460;DHT22;23318;50.966;5.284;2023-04-15T11:53:03;21.60;81.20
37460;DHT22;23318;50.966;5.284;2023-04-15T11:55:30;22.00;81.50
37460;DHT22;23318;50.966;5.284;2023-04-15T11:58:11;20.90;81.80
37460;DHT22;23318;50.966;5.284;2023-04-15T12:00:39;21.60;80.00
37460;DHT22;23318;50.966;5.284;2023-04-15T12:06:01;22.60;79.10
37460;DHT22;23318;50.966;5.284;2023-04-15T12:08:57;22.60;79.00
37460;DHT22;23318;50.966;5.284;2023-04-15T12:13:58;24.00;76.60
37460;DHT22;23318;50.966;5.284;2023-04-15T12:16:27;24.10;74.10
37460;DHT22;23318;50.966;5.284;2023-04-15T12:18:55;22.50;75.10
37460;DHT22;23318;50.966;5.284;2023-04-15T12:21:22;22.70;73.90
37460;DHT22;23318;50.966;5.284;2023-04-15T12:26:15;25.30;69.60
37460;DHT22;23318;50.966;5.284;2023-04-15T12:28:41;23.70;68.90
37460;DHT22;23318;50.966;5.284;2023-04-15T12:31:10;23.00;70.00
37460;DHT22;23318;50.966;5.284;2023-04-15T12:33:36;22.90;71.10
37460;DHT22;23318;50.966;5.284;2023-04-15T12:36:03;22.60;67.70
37460;DHT22;23318;50.966;5.284;2023-04-15T12:38:29;21.70;67.40
37460;DHT22;23318;50.966;5.284;2023-04-15T12:40:56;21.10;66.60
37460;DHT22;23318;50.966;5.284;2023-04-15T12:43:22;21.50;67.50
37460;DHT22;23318;50.966;5.284;2023-04-15T12:45:48;21.90;67.40
37460;DHT22;23318;50.966;5.284;2023-04-15T12:48:15;22.00;68.60
37460;DHT22;23318;50.966;5.284;2023-04-15T12:50:41;22.40;68.10
37460;DHT22;23318;50.966;5.284;2023-04-15T12:53:06;22.30;67.90
37460;DHT22;23318;50.966;5.284;2023-04-15T12:55:32;22.20;67.90
37460;DHT22;23318;50.966;5.284;2023-04-15T12:57:57;22.80;66.80
37460;DHT22;23318;50.966;5.284;2023-04-15T13:00:23;23.60;66.70
37460;DHT22;23318;50.966;5.284;2023-04-15T13:02:49;23.40;66.00
37460;DHT22;23318;50.966;5.284;2023-04-15T13:05:14;23.00;65.00
37460;DHT22;23318;50.966;5.284;2023-04-15T13:07:43;22.60;65.90
37460;DHT22;23318;50.966;5.284;2023-04-15T13:10:09;23.80;65.10
37460;DHT22;23318;50.966;5.284;2023-04-15T13:12:35;24.30;64.40
37460;DHT22;23318;50.966;5.284;2023-04-15T13:15:01;24.40;65.00
37460;DHT22;23318;50.966;5.284;2023-04-15T13:17:27;24.10;64.50
37460;DHT22;23318;50.966;5.284;2023-04-15T13:19:53;24.10;64.40
37460;DHT22;23318;50.966;5.284;2023-04-15T13:22:18;24.40;63.70
37460;DHT22;23318;50.966;5.284;2023-04-15T13:24:44;24.40;64.90
37460;DHT22;23318;50.966;5.284;2023-04-15T13:27:10;23.90;65.30
37460;DHT22;23318;50.966;5.284;2023-04-15T13:29:35;23.80;65.40
37460;DHT22;23318;50.966;5.284;2023-04-15T13:32:01;23.30;66.40
37460;DHT22;23318;50.966;5.284;2023-04-15T13:34:28;21.40;67.90
37460;DHT22;23318;50.966;5.284;2023-04-15T13:36:53;21.80;67.90
37460;DHT22;23318;50.966;5.284;2023-04-15T13:39:19;21.70;68.40
37460;DHT22;23318;50.966;5.284;2023-04-15T13:41:45;21.30;67.30
37460;DHT22;23318;50.966;5.284;2023-04-15T13:44:12;23.30;67.10
37460;DHT22;23318;50.966;5.284;2023-04-15T13:46:39;23.80;66.40
37460;DHT22;23318;50.966;5.284;2023-04-15T13:49:07;24.30;65.60
37460;DHT22;23318;50.966;5.284;2023-04-15T13:51:32;25.10;65.70
37460;DHT22;23318;50.966;5.284;2023-04-15T13:54:00;24.10;66.10
37460;DHT22;23318;50.966;5.284;2023-04-15T13:56:26;23.70;66.70
37460;DHT22;23318;50.966;5.284;2023-04-15T13:58:52;22.10;67.10
37460;DHT22;23318;50.966;5.284;2023-04-15T14:01:19;21.80;68.30
37460;DHT22;23318;50.966;5.284;2023-04-15T14:03:44;23.50;67.40
37460;DHT22;23318;50.966;5.284;2023-04-15T14:06:10;24.00;66.80
37460;DHT22;23318;50.966;5.284;2023-04-15T14:08:36;22.30;68.20
37460;DHT22;23318;50.966;5.284;2023-04-15T14:11:02;22.10;68.70
37460;DHT22;23318;50.966;5.284;2023-04-15T14:13:27;23.00;65.90
37460;DHT22;23318;50.966;5.284;2023-04-15T14:15:53;23.90;66.50
37460;DHT22;23318;50.966;5.284;2023-04-15T14:18:19;24.20;66.00
37460;DHT22;23318;50.966;5.284;2023-04-15T14:20:45;24.20;66.30
37460;DHT22;23318;50.966;5.284;2023-04-15T14:23:11;24.10;66.40
37460;DHT22;23318;50.966;5.284;2023-04-15T14:25:36;25.10;65.90
37460;DHT22;23318;50.966;5.284;2023-04-15T14:28:03;25.40;65.30
37460;DHT22;23318;50.966;5.284;2023-04-15T14:30:29;24.50;66.00
37460;DHT22;23318;50.966;5.284;2023-04-15T14:32:55;22.50;66.80
37460;DHT22;23318;50.966;5.284;2023-04-15T14:35:20;21.90;68.10
37460;DHT22;23318;50.966;5.284;2023-04-15T14:37:46;22.10;67.90
37460;DHT22;23318;50.966;5.284;2023-04-15T14:40:12;22.90;67.10
37460;DHT22;23318;50.966;5.284;2023-04-15T14:42:37;24.00;67.70
37460;DHT22;23318;50.966;5.284;2023-04-15T14:45:03;23.50;67.10
37460;DHT22;23318;50.966;5.284;2023-04-15T14:47:30;21.40;69.00
37460;DHT22;23318;50.966;5.284;2023-04-15T14:49:55;20.50;69.90
37460;DHT22;23318;50.966;5.284;2023-04-15T14:52:21;19.40;71.50
37460;DHT22;23318;50.966;5.284;2023-04-15T14:54:47;19.40;72.40
37460;DHT22;23318;50.966;5.284;2023-04-15T14:57:12;21.00;71.70
37460;DHT22;23318;50.966;5.284;2023-04-15T14:59:38;22.10;71.60
37460;DHT22;23318;50.966;5.284;2023-04-15T15:02:04;23.00;70.20
37460;DHT22;23318;50.966;5.284;2023-04-15T15:04:29;22.00;69.60
37460;DHT22;23318;50.966;5.284;2023-04-15T15:06:57;21.60;71.10
37460;DHT22;23318;50.966;5.284;2023-04-15T15:09:23;20.60;71.30
37460;DHT22;23318;50.966;5.284;2023-04-15T15:11:49;20.80;70.70
37460;DHT22;23318;50.966;5.284;2023-04-15T15:14:15;21.70;70.40
37460;DHT22;23318;50.966;5.284;2023-04-15T15:16:41;22.60;69.60
37460;DHT22;23318;50.966;5.284;2023-04-15T15:19:07;22.40;68.50
37460;DHT22;23318;50.966;5.284;2023-04-15T15:21:33;21.70;69.30
37460;DHT22;23318;50.966;5.284;2023-04-15T15:23:58;21.60;68.90
37460;DHT22;23318;50.966;5.284;2023-04-15T15:26:24;22.20;68.30
37460;DHT22;23318;50.966;5.284;2023-04-15T15:28:52;22.40;68.90
37460;DHT22;23318;50.966;5.284;2023-04-15T15:31:18;22.60;68.20
37460;DHT22;23318;50.966;5.284;2023-04-15T15:33:43;21.60;69.10
37460;DHT22;23318;50.966;5.284;2023-04-15T15:36:11;20.90;69.70
37460;DHT22;23318;50.966;5.284;2023-04-15T15:38:36;21.80;69.90
37460;DHT22;23318;50.966;5.284;2023-04-15T15:41:03;22.10;69.50
37460;DHT22;23318;50.966;5.284;2023-04-15T15:43:29;20.70;69.70
37460;DHT22;23318;50.966;5.284;2023-04-15T15:45:54;19.20;71.50
37460;DHT22;23318;50.966;5.284;2023-04-15T15:48:22;19.50;72.50